Time;durP1;ratioP1;P1;durP2;ratioP2;P2;SDS_P1;SDS_P2;PMS_P1;PMS_P2;Temp;Humidity;BMP_temperature;BMP_pressure;BME280_temperature;BME280_humidity;BME280_pressure;Samples;Min_cycle;Max_cycle;Signal;HPM_P1;HPM_P2
2022/10/06 00:01:38;;;;;;;2.55;0.63;;;13.90;99.90;;;;;;4976776;28;20053;-83
2022/10/06 00:04:04;;;;;;;4.10;0.90;;;13.80;99.90;;;;;;4977847;28;20438;-83
2022/10/06 00:06:34;;;;;;;3.45;1.00;;;13.80;99.90;;;;;;4977551;28;20023;-82
2022/10/06 00:09:06;;;;;;;6.22;0.90;;;13.80;99.90;;;;;;4977362;28;20482;-82
2022/10/06 00:11:34;;;;;;;5.75;1.30;;;13.80;99.90;;;;;;4977278;28;20091;-83
2022/10/06 00:14:06;;;;;;;6.07;1.20;;;13.80;99.90;;;;;;4977810;28;20019;-82
2022/10/06 00:16:36;;;;;;;5.43;1.27;;;13.80;99.90;;;;;;4978678;28;20467;-82
2022/10/06 00:19:09;;;;;;;6.70;1.10;;;13.80;99.90;;;;;;4977725;28;20110;-83
2022/10/06 00:21:43;;;;;;;3.33;0.90;;;13.80;99.90;;;;;;4977401;28;20335;-83
2022/10/06 00:24:13;;;;;;;5.88;0.80;;;13.70;99.90;;;;;;4977405;28;20027;-82
2022/10/06 00:26:48;;;;;;;8.00;1.02;;;13.70;99.90;;;;;;4978196;28;20048;-82
2022/10/06 00:29:18;;;;;;;3.65;1.23;;;13.80;99.90;;;;;;4976908;28;20023;-82
2022/10/06 00:31:53;;;;;;;4.43;0.93;;;13.70;99.90;;;;;;4978842;28;20022;-81
2022/10/06 00:34:24;;;;;;;6.63;0.80;;;13.80;99.90;;;;;;4977078;28;20078;-81
2022/10/06 00:36:57;;;;;;;4.43;0.75;;;13.70;99.90;;;;;;4977089;28;20121;-81
2022/10/06 00:39:26;;;;;;;3.95;0.80;;;13.70;99.90;;;;;;4976786;28;20039;-82
2022/10/06 00:42:05;;;;;;;7.20;1.23;;;13.70;99.90;;;;;;4976825;28;20027;-82
2022/10/06 00:44:35;;;;;;;5.40;0.88;;;13.70;99.90;;;;;;4963456;28;20027;-82
2022/10/06 00:47:02;;;;;;;6.95;1.38;;;13.60;99.90;;;;;;4977819;28;20038;-82
2022/10/06 00:49:36;;;;;;;4.30;0.80;;;13.70;99.90;;;;;;4976773;28;20033;-82
2022/10/06 00:52:17;;;;;;;6.50;1.23;;;13.60;99.90;;;;;;4976796;28;20047;-82
2022/10/06 00:54:47;;;;;;;3.17;0.80;;;13.60;99.90;;;;;;4976628;28;20135;-81
2022/10/06 00:57:21;;;;;;;6.72;1.20;;;13.60;99.90;;;;;;4976659;28;20026;-81
2022/10/06 00:59:54;;;;;;;5.97;1.08;;;13.60;99.90;;;;;;4976471;28;20039;-82
2022/10/06 01:02:33;;;;;;;8.80;1.00;;;13.60;99.90;;;;;;4977302;28;20542;-81
2022/10/06 01:05:09;;;;;;;5.80;1.10;;;13.60;99.90;;;;;;4977365;28;20030;-81
2022/10/06 01:07:42;;;;;;;4.53;0.82;;;13.60;99.90;;;;;;4982633;28;20497;-82
2022/10/06 01:10:09;;;;;;;3.92;0.85;;;13.60;99.90;;;;;;4975802;28;20035;-81
2022/10/06 01:12:43;;;;;;;6.47;1.05;;;13.50;99.90;;;;;;4978434;28;20066;-81
2022/10/06 01:15:13;;;;;;;6.47;1.30;;;13.50;99.90;;;;;;4963227;28;20031;-80
2022/10/06 01:17:53;;;;;;;9.77;2.00;;;13.50;99.90;;;;;;4966908;28;20027;-81
2022/10/06 01:20:21;;;;;;;7.22;1.10;;;13.50;99.90;;;;;;4976356;28;20031;-80
2022/10/06 01:23:16;;;;;;;5.38;1.15;;;13.40;99.90;;;;;;4976954;28;20567;-80
2022/10/06 01:25:56;;;;;;;3.47;1.05;;;13.40;99.90;;;;;;4997678;28;20054;-80
2022/10/06 01:28:28;;;;;;;7.95;1.25;;;13.40;99.90;;;;;;4991987;28;20035;-80
2022/10/06 01:31:01;;;;;;;4.40;0.95;;;13.30;99.90;;;;;;4981631;28;20026;-81
2022/10/06 01:33:30;;;;;;;5.30;1.23;;;13.30;99.90;;;;;;4975436;28;20023;-81
2022/10/06 01:36:02;;;;;;;5.32;0.90;;;13.30;99.90;;;;;;4978009;28;20042;-81
2022/10/06 01:38:33;;;;;;;7.15;1.88;;;13.30;99.90;;;;;;4977013;28;20015;-82
2022/10/06 01:40:59;;;;;;;5.25;1.10;;;13.20;99.90;;;;;;4975911;28;20058;-81
2022/10/06 01:43:26;;;;;;;6.70;1.10;;;13.20;99.90;;;;;;4976837;28;20399;-81
2022/10/06 01:46:06;;;;;;;5.55;1.10;;;13.20;99.90;;;;;;4967588;28;20032;-81
2022/10/06 01:48:38;;;;;;;4.65;0.95;;;13.20;99.90;;;;;;4973155;28;20030;-81
2022/10/06 01:51:07;;;;;;;7.57;1.27;;;13.20;99.90;;;;;;4976955;28;20139;-81
2022/10/06 01:53:33;;;;;;;5.68;0.90;;;13.20;99.90;;;;;;4975694;28;20022;-82
2022/10/06 01:56:04;;;;;;;6.97;1.05;;;13.20;99.90;;;;;;4976876;28;20018;-82
2022/10/06 01:58:37;;;;;;;5.90;1.27;;;13.30;99.90;;;;;;4976603;28;20030;-80
2022/10/06 02:01:08;;;;;;;5.95;1.15;;;13.30;99.90;;;;;;4975065;28;20121;-80
2022/10/06 02:03:41;;;;;;;6.55;1.00;;;13.30;99.90;;;;;;4975351;28;20054;-81
2022/10/06 02:06:10;;;;;;;4.57;1.10;;;13.30;99.90;;;;;;4976937;28;20023;-81
2022/10/06 02:08:43;;;;;;;5.50;1.10;;;13.30;99.90;;;;;;4976105;28;20133;-82
2022/10/06 02:11:19;;;;;;;5.15;1.13;;;13.20;99.90;;;;;;4976192;28;20057;-82
2022/10/06 02:13:45;;;;;;;5.72;0.90;;;13.10;99.90;;;;;;4975038;28;20022;-80
2022/10/06 02:16:14;;;;;;;4.85;0.90;;;13.10;99.90;;;;;;4976579;28;20038;-81
2022/10/06 02:18:41;;;;;;;6.30;1.05;;;13.10;99.90;;;;;;4975114;28;20110;-81
2022/10/06 02:21:17;;;;;;;4.45;1.10;;;13.00;99.90;;;;;;4963246;28;20035;-80
2022/10/06 02:23:47;;;;;;;4.88;0.77;;;13.00;99.90;;;;;;4974963;28;20058;-81
2022/10/06 02:26:17;;;;;;;6.65;1.20;;;12.90;99.90;;;;;;4975034;28;20029;-82
2022/10/06 02:28:50;;;;;;;4.32;0.90;;;12.90;99.90;;;;;;4975199;28;20415;-81
2022/10/06 02:31:17;;;;;;;6.77;0.70;;;12.80;99.90;;;;;;4975135;28;20413;-81
2022/10/06 02:33:51;;;;;;;5.55;1.00;;;12.80;99.90;;;;;;4974510;28;20277;-81
2022/10/06 02:36:18;;;;;;;4.47;0.85;;;12.70;99.90;;;;;;4974578;28;20387;-81
2022/10/06 02:38:44;;;;;;;7.68;1.13;;;12.60;99.90;;;;;;4973905;28;20027;-81
2022/10/06 02:41:11;;;;;;;5.25;1.10;;;12.60;99.90;;;;;;4990386;28;20386;-81
2022/10/06 02:43:37;;;;;;;9.90;1.10;;;12.60;99.90;;;;;;4975740;28;20113;-81
2022/10/06 02:46:10;;;;;;;6.70;1.38;;;12.50;99.90;;;;;;4974787;28;20027;-81
2022/10/06 02:48:38;;;;;;;4.72;1.35;;;12.50;99.90;;;;;;4961987;28;20034;-82
2022/10/06 02:51:08;;;;;;;6.78;1.00;;;12.50;99.90;;;;;;4990387;28;20031;-81
2022/10/06 02:53:35;;;;;;;5.97;1.02;;;12.40;99.90;;;;;;4976906;28;20023;-80
2022/10/06 02:56:07;;;;;;;5.45;1.25;;;12.40;99.90;;;;;;4975438;28;20101;-81
2022/10/06 02:58:36;;;;;;;7.25;1.67;;;12.40;99.90;;;;;;4974372;28;20030;-81
2022/10/06 03:01:04;;;;;;;6.47;1.30;;;12.30;99.90;;;;;;4974121;28;20023;-81
2022/10/06 03:03:31;;;;;;;3.40;1.00;;;12.30;99.90;;;;;;4972853;28;20102;-81
2022/10/06 03:06:20;;;;;;;3.40;0.93;;;12.30;99.90;;;;;;4964220;28;20046;-81
2022/10/06 03:08:58;;;;;;;4.40;1.00;;;12.20;99.90;;;;;;4990214;28;20023;-82
2022/10/06 03:11:30;;;;;;;5.72;0.82;;;12.20;99.90;;;;;;4974837;28;20070;-81
2022/10/06 03:13:56;;;;;;;5.82;0.80;;;12.10;99.90;;;;;;4989319;28;20057;-79
2022/10/06 03:16:25;;;;;;;6.00;1.15;;;12.20;99.90;;;;;;4995923;28;20030;-82
2022/10/06 03:18:54;;;;;;;4.72;0.90;;;12.10;99.90;;;;;;4987228;28;20355;-81
2022/10/06 03:21:25;;;;;;;4.97;0.90;;;12.10;99.90;;;;;;4974505;28;20130;-81
2022/10/06 03:23:56;;;;;;;5.68;0.93;;;12.10;99.90;;;;;;4976564;28;20145;-81
2022/10/06 03:26:37;;;;;;;5.70;0.98;;;12.10;99.90;;;;;;4977653;28;20023;-82
2022/10/06 03:29:09;;;;;;;2.80;0.75;;;12.00;99.90;;;;;;4977801;28;20019;-80
2022/10/06 03:31:39;;;;;;;4.38;1.20;;;12.00;99.90;;;;;;4961438;28;20466;-81
2022/10/06 03:34:08;;;;;;;7.88;1.48;;;12.00;99.90;;;;;;4974103;28;20015;-81
2022/10/06 03:36:35;;;;;;;3.55;0.60;;;12.00;99.90;;;;;;4973775;28;20023;-81
2022/10/06 03:39:03;;;;;;;4.45;0.82;;;12.00;99.90;;;;;;4975236;28;20106;-81
2022/10/06 03:41:34;;;;;;;4.35;0.73;;;12.00;99.90;;;;;;4973569;28;20529;-82
2022/10/06 03:44:07;;;;;;;3.40;0.80;;;11.90;99.90;;;;;;4974140;28;20022;-80
2022/10/06 03:46:39;;;;;;;3.97;1.00;;;11.90;99.90;;;;;;4973849;28;20352;-82
2022/10/06 03:49:09;;;;;;;3.57;0.90;;;11.90;99.90;;;;;;4974581;28;20062;-82
2022/10/06 03:51:43;;;;;;;5.45;0.80;;;11.80;99.90;;;;;;4973484;28;20373;-82
2022/10/06 03:54:13;;;;;;;4.70;0.77;;;11.80;99.90;;;;;;4973936;28;20429;-81
2022/10/06 03:56:41;;;;;;;5.60;1.00;;;11.80;99.90;;;;;;4973182;28;20027;-81
2022/10/06 03:59:16;;;;;;;4.78;0.70;;;11.80;99.90;;;;;;4973600;28;20047;-82
2022/10/06 04:01:51;;;;;;;3.88;0.73;;;11.80;99.90;;;;;;4973179;28;20517;-82
2022/10/06 04:04:21;;;;;;;3.30;0.60;;;11.70;99.90;;;;;;4973481;28;20031;-82
2022/10/06 04:06:56;;;;;;;5.78;0.88;;;11.70;99.90;;;;;;4973475;28;20488;-82
2022/10/06 04:09:28;;;;;;;5.35;0.95;;;11.70;99.90;;;;;;4974916;28;20030;-82
2022/10/06 04:11:55;;;;;;;1.95;0.40;;;11.60;99.90;;;;;;4973596;28;20065;-82
2022/10/06 04:14:22;;;;;;;2.33;0.50;;;11.60;99.90;;;;;;4973707;28;20023;-82
2022/10/06 04:16:55;;;;;;;3.38;0.60;;;11.60;99.90;;;;;;4973041;28;20029;-82
2022/10/06 04:19:28;;;;;;;6.25;0.75;;;11.60;99.90;;;;;;4970442;28;20012;-82
2022/10/06 04:21:58;;;;;;;5.18;0.82;;;11.50;99.90;;;;;;4964550;28;20039;-82
2022/10/06 04:24:27;;;;;;;6.38;0.85;;;11.50;99.90;;;;;;4974486;28;20026;-82
2022/10/06 04:27:26;;;;;;;6.22;1.13;;;11.50;99.90;;;;;;4973620;28;20023;-82
2022/10/06 04:29:44;;;;;;;7.35;1.25;;;11.50;99.90;;;;;;4974432;28;20023;-82
2022/10/06 04:32:14;;;;;;;6.35;1.15;;;11.40;99.90;;;;;;4973220;28;20110;-81
2022/10/06 04:34:44;;;;;;;4.25;1.10;;;11.40;99.90;;;;;;4971723;28;20042;-82
2022/10/06 04:37:10;;;;;;;6.15;1.52;;;11.40;99.90;;;;;;4973931;28;20026;-82
2022/10/06 04:39:36;;;;;;;5.40;0.82;;;11.40;99.90;;;;;;4974420;28;20054;-82
2022/10/06 04:42:10;;;;;;;5.50;0.90;;;11.30;99.90;;;;;;4973925;28;20425;-82
2022/10/06 04:44:37;;;;;;;3.70;0.80;;;11.30;99.90;;;;;;4972700;28;20491;-81
2022/10/06 04:47:04;;;;;;;3.65;0.73;;;11.30;99.90;;;;;;4976035;28;20014;-81
2022/10/06 04:49:36;;;;;;;4.63;1.25;;;11.30;99.90;;;;;;4976714;28;20117;-82
2022/10/06 04:52:16;;;;;;;7.05;1.33;;;11.30;99.90;;;;;;4988808;28;20127;-82
2022/10/06 04:54:45;;;;;;;3.35;0.65;;;11.30;99.90;;;;;;4985236;28;20423;-81
2022/10/06 04:57:17;;;;;;;4.88;0.90;;;11.20;99.90;;;;;;4992928;28;20027;-81
2022/10/06 05:02:32;;;;;;;7.32;1.13;;;11.20;99.90;;;;;;4987293;28;20053;-79
2022/10/06 05:05:00;;;;;;;4.22;1.20;;;11.10;99.90;;;;;;4997713;28;20103;-83
2022/10/06 05:07:30;;;;;;;5.55;0.90;;;11.10;99.90;;;;;;4996018;28;20031;-82
2022/10/06 05:10:05;;;;;;;5.25;0.90;;;11.10;99.90;;;;;;4976635;28;20031;-82
2022/10/06 05:12:34;;;;;;;7.03;1.45;;;11.10;99.90;;;;;;4974815;28;20034;-83
2022/10/06 05:15:08;;;;;;;5.93;1.05;;;11.10;99.90;;;;;;4976436;28;20033;-82
2022/10/06 05:17:35;;;;;;;5.05;0.90;;;11.00;99.90;;;;;;4976746;28;20086;-81
2022/10/06 05:20:05;;;;;;;5.72;0.98;;;11.00;99.90;;;;;;4984594;28;20423;-81
2022/10/06 05:22:35;;;;;;;4.30;0.80;;;11.00;99.90;;;;;;4972311;28;20027;-82
2022/10/06 05:25:05;;;;;;;8.57;1.63;;;11.00;99.90;;;;;;4977985;28;20081;-82
2022/10/06 05:27:35;;;;;;;4.72;0.90;;;11.00;99.90;;;;;;4975885;28;20022;-82
2022/10/06 05:30:06;;;;;;;3.88;0.90;;;11.00;99.90;;;;;;4976053;28;20023;-81
2022/10/06 05:32:38;;;;;;;3.28;0.70;;;10.90;99.90;;;;;;4975738;28;20053;-82
2022/10/06 05:35:14;;;;;;;4.82;0.85;;;10.90;99.90;;;;;;4974653;28;20019;-80
2022/10/06 05:37:57;;;;;;;4.53;0.80;;;10.90;99.90;;;;;;4992341;28;20074;-82
2022/10/06 05:40:32;;;;;;;6.07;0.97;;;10.90;99.90;;;;;;4977891;28;20035;-80
2022/10/06 05:43:04;;;;;;;3.75;0.82;;;10.90;99.90;;;;;;4977710;28;20030;-80
2022/10/06 05:45:37;;;;;;;6.18;1.58;;;10.90;99.90;;;;;;4976284;28;20029;-80
2022/10/06 05:48:14;;;;;;;3.70;0.77;;;10.80;99.90;;;;;;4975733;28;20485;-82
2022/10/06 05:50:49;;;;;;;4.15;0.70;;;10.80;99.90;;;;;;4976881;28;20050;-81
2022/10/06 05:53:19;;;;;;;3.75;0.85;;;10.80;99.90;;;;;;4975473;28;20475;-80
2022/10/06 05:55:51;;;;;;;4.95;0.88;;;10.80;99.90;;;;;;4977309;28;20112;-81
2022/10/06 05:58:21;;;;;;;2.57;0.83;;;10.80;99.90;;;;;;4987543;28;20042;-81
2022/10/06 06:00:53;;;;;;;4.60;1.20;;;10.80;99.90;;;;;;4975567;28;20038;-82
2022/10/06 06:03:23;;;;;;;9.43;1.48;;;10.80;99.90;;;;;;4972286;28;20058;-82
2022/10/06 06:06:02;;;;;;;7.65;1.48;;;10.80;99.90;;;;;;4975364;28;20031;-82
2022/10/06 06:08:37;;;;;;;5.20;1.00;;;10.80;99.90;;;;;;4986869;28;20545;-81
2022/10/06 06:11:12;;;;;;;6.32;1.05;;;10.80;99.90;;;;;;4972180;28;20034;-82
2022/10/06 06:13:49;;;;;;;4.07;0.90;;;10.80;99.90;;;;;;4988482;28;20027;-82
2022/10/06 06:16:25;;;;;;;8.77;1.40;;;10.80;99.90;;;;;;4974937;28;20606;-82
2022/10/06 06:19:07;;;;;;;5.68;1.08;;;10.80;99.90;;;;;;4991342;28;20470;-82
2022/10/06 06:21:43;;;;;;;6.80;1.55;;;10.80;99.90;;;;;;4959655;28;20130;-81
2022/10/06 06:24:14;;;;;;;6.43;1.70;;;10.90;99.90;;;;;;4991285;28;20063;-82
2022/10/06 06:27:14;;;;;;;5.40;1.20;;;10.90;99.90;;;;;;4974948;28;20065;-81
2022/10/06 06:30:04;;;;;;;7.65;1.20;;;10.90;99.90;;;;;;4968794;28;20047;-82
2022/10/06 06:32:44;;;;;;;5.05;1.48;;;10.90;99.90;;;;;;4975156;28;20035;-83
2022/10/06 06:35:51;;;;;;;5.47;1.13;;;10.90;99.90;;;;;;4975083;28;20394;-81
2022/10/06 06:38:36;;;;;;;4.53;1.30;;;10.90;99.90;;;;;;4974400;28;20406;-82
2022/10/06 06:41:30;;;;;;;4.15;1.33;;;11.00;99.90;;;;;;4974609;28;20042;-82
2022/10/06 06:44:11;;;;;;;3.95;1.10;;;11.00;99.90;;;;;;4974718;28;20026;-81
2022/10/06 06:46:53;;;;;;;5.60;1.23;;;11.00;99.90;;;;;;4961949;28;20046;-81
2022/10/06 06:49:30;;;;;;;7.50;1.10;;;11.00;99.90;;;;;;4975859;28;20038;-80
2022/10/06 06:52:05;;;;;;;6.50;1.20;;;11.00;99.90;;;;;;4983347;28;20026;-80
2022/10/06 06:54:40;;;;;;;5.43;1.27;;;11.00;99.90;;;;;;4996083;28;20010;-80
2022/10/06 06:57:22;;;;;;;3.40;1.13;;;11.10;99.90;;;;;;4995804;28;20062;-81
2022/10/06 06:59:54;;;;;;;5.85;1.50;;;11.10;99.90;;;;;;4975700;28;20101;-81
2022/10/06 07:02:25;;;;;;;5.25;1.58;;;11.10;99.90;;;;;;4972189;28;20070;-81
2022/10/06 07:04:52;;;;;;;5.10;1.30;;;11.20;99.90;;;;;;4973971;28;20035;-81
2022/10/06 07:07:21;;;;;;;7.28;1.02;;;11.30;99.90;;;;;;4973380;28;20066;-81
2022/10/06 07:09:51;;;;;;;4.50;0.95;;;11.30;99.90;;;;;;4989528;28;20081;-82
2022/10/06 07:12:28;;;;;;;7.47;1.40;;;11.40;99.90;;;;;;4973414;28;20089;-82
2022/10/06 07:26:03;;;;;;;6.75;1.52;;;11.60;99.90;;;;;;4974080;28;20034;-81
2022/10/06 07:28:33;;;;;;;6.93;1.67;;;11.70;99.90;;;;;;4988736;28;20033;-80
2022/10/06 07:31:00;;;;;;;6.82;1.67;;;11.70;99.90;;;;;;4971216;28;20058;-80
2022/10/06 07:33:31;;;;;;;5.55;1.60;;;11.80;99.90;;;;;;4987229;28;20402;-81
2022/10/06 07:35:57;;;;;;;6.63;2.22;;;11.80;99.90;;;;;;4988721;28;20039;-81
2022/10/06 07:38:24;;;;;;;7.15;1.48;;;11.90;99.90;;;;;;4988651;28;20027;-81
2022/10/06 07:40:56;;;;;;;5.63;1.30;;;12.00;99.90;;;;;;4988189;28;21354;-81
2022/10/06 07:43:23;;;;;;;6.60;1.73;;;12.00;99.90;;;;;;4971544;28;20023;-81
2022/10/06 07:45:50;;;;;;;9.90;1.98;;;12.10;99.90;;;;;;4973579;28;20019;-80
2022/10/06 07:48:21;;;;;;;8.25;1.85;;;12.10;99.90;;;;;;4973252;28;20490;-81
2022/10/06 07:50:49;;;;;;;7.93;2.45;;;12.10;99.90;;;;;;4974990;28;20026;-80
2022/10/06 07:53:17;;;;;;;6.38;1.80;;;12.20;99.90;;;;;;4972154;28;20105;-81
2022/10/06 07:55:51;;;;;;;12.57;3.05;;;12.30;99.90;;;;;;4973355;28;20031;-82
2022/10/06 07:58:20;;;;;;;6.55;1.83;;;12.30;99.90;;;;;;4969193;28;20090;-82
2022/10/06 08:00:54;;;;;;;7.60;1.83;;;12.40;99.90;;;;;;4973492;28;20494;-81
2022/10/06 08:03:22;;;;;;;6.30;1.85;;;12.40;99.90;;;;;;4973890;28;20102;-81
2022/10/06 08:06:02;;;;;;;10.82;2.50;;;12.50;99.90;;;;;;4972956;28;20039;-81
2022/10/06 08:08:36;;;;;;;7.97;1.85;;;12.60;99.90;;;;;;4973031;28;20505;-81
2022/10/06 08:11:13;;;;;;;8.70;2.20;;;12.60;99.90;;;;;;4972549;28;20039;-80
2022/10/06 08:13:47;;;;;;;7.15;1.60;;;12.70;99.90;;;;;;4974630;28;20122;-80
2022/10/06 08:16:20;;;;;;;;;;;12.80;99.90;;;;;;4974616;28;20471;-81
2022/10/06 08:19:03;;;;;;;8.95;2.13;;;12.90;99.90;;;;;;4974013;28;19961;-81
2022/10/06 08:21:41;;;;;;;8.90;2.13;;;13.00;99.90;;;;;;4962881;28;20116;-81
2022/10/06 08:24:13;;;;;;;9.60;2.25;;;13.00;99.90;;;;;;4976759;28;20026;-81
2022/10/06 08:26:42;;;;;;;5.87;1.70;;;13.10;99.90;;;;;;4978091;28;20022;-81
2022/10/06 08:29:15;;;;;;;7.20;1.63;;;13.20;99.90;;;;;;4973080;28;20107;-81
2022/10/06 08:31:42;;;;;;;5.93;1.67;;;13.40;99.90;;;;;;4977571;28;20042;-80
2022/10/06 08:34:15;;;;;;;4.97;1.67;;;13.40;99.90;;;;;;4976202;28;20038;-80
2022/10/06 08:36:44;;;;;;;8.65;1.73;;;13.60;99.90;;;;;;4985455;28;20053;-80
2022/10/06 08:39:11;;;;;;;8.00;1.92;;;13.60;99.90;;;;;;4963876;28;20027;-81
2022/10/06 08:41:50;;;;;;;4.93;1.50;;;13.70;99.90;;;;;;4975410;28;20035;-80
2022/10/06 08:48:23;;;;;;;5.43;1.40;;;13.90;99.90;;;;;;4957894;28;20039;-81
2022/10/06 08:51:18;;;;;;;7.90;1.95;;;14.00;99.90;;;;;;5013537;28;20025;-81
2022/10/06 08:54:12;;;;;;;7.03;1.48;;;14.10;99.90;;;;;;4993861;28;20027;-80
2022/10/06 08:57:02;;;;;;;6.45;1.38;;;14.20;99.90;;;;;;4976634;28;20043;-81
2022/10/06 08:59:33;;;;;;;8.48;1.63;;;14.30;99.90;;;;;;4976690;28;20086;-81
2022/10/06 09:02:13;;;;;;;11.68;2.58;;;14.50;99.90;;;;;;4975429;28;20399;-81
2022/10/06 09:04:48;;;;;;;9.52;2.05;;;14.60;99.90;;;;;;4976200;28;20399;-81
2022/10/06 09:07:34;;;;;;;8.00;1.90;;;14.60;99.90;;;;;;4991385;28;20061;-80
2022/10/06 09:10:22;;;;;;;7.97;1.85;;;14.80;99.90;;;;;;4990682;28;20109;-81
2022/10/06 09:13:01;;;;;;;10.48;1.75;;;14.90;99.90;;;;;;4990393;28;20023;-82
2022/10/06 09:15:49;;;;;;;5.30;1.08;;;15.50;99.90;;;;;;4974102;28;20046;-81
2022/10/06 09:18:43;;;;;;;6.53;1.20;;;17.00;99.90;;;;;;4975588;28;20058;-81
2022/10/06 09:21:32;;;;;;;6.72;1.40;;;18.90;99.90;;;;;;4986619;28;20034;-82
2022/10/06 09:24:18;;;;;;;5.47;1.17;;;20.40;99.90;;;;;;4975030;28;20478;-82
2022/10/06 09:26:53;;;;;;;7.35;1.40;;;21.30;99.90;;;;;;4989803;28;20019;-80
2022/10/06 09:29:30;;;;;;;8.68;1.48;;;21.90;99.90;;;;;;4975431;28;20026;-81
2022/10/06 09:32:01;;;;;;;8.80;1.80;;;22.30;99.90;;;;;;4972827;28;20035;-81
2022/10/06 09:34:41;;;;;;;5.88;1.20;;;22.60;99.90;;;;;;4975489;28;20098;-82
2022/10/06 09:37:15;;;;;;;6.75;1.60;;;22.80;99.90;;;;;;4975656;28;20058;-82
2022/10/06 09:39:56;;;;;;;4.00;1.35;;;23.30;99.90;;;;;;4974775;28;20042;-82
2022/10/06 09:42:34;;;;;;;5.55;0.93;;;23.40;99.90;;;;;;4974636;28;20089;-81
2022/10/06 09:45:22;;;;;;;6.05;1.52;;;23.50;99.90;;;;;;4990599;28;20089;-80
2022/10/06 09:47:56;;;;;;;4.60;1.23;;;23.90;99.90;;;;;;4972390;28;20023;-81
2022/10/06 09:50:31;;;;;;;4.20;1.13;;;24.00;99.90;;;;;;4974581;28;20038;-81
2022/10/06 09:53:03;;;;;;;4.22;0.90;;;24.30;99.90;;;;;;4973152;28;20534;-82
2022/10/06 09:55:50;;;;;;;4.05;0.95;;;23.90;99.90;;;;;;4972401;28;20467;-81
2022/10/06 09:58:23;;;;;;;8.05;1.65;;;23.70;99.90;;;;;;4974156;28;20050;-81
2022/10/06 10:01:11;;;;;;;4.70;1.25;;;23.60;99.90;;;;;;4976038;28;20121;-81
2022/10/06 10:03:53;;;;;;;7.00;1.27;;;23.50;99.90;;;;;;4973845;28;20055;-80
2022/10/06 10:06:29;;;;;;;3.38;1.05;;;23.70;99.90;;;;;;4973608;28;20054;-81
2022/10/06 10:09:18;;;;;;;6.00;1.27;;;24.00;99.90;;;;;;4970809;28;20015;-81
2022/10/06 10:15:09;;;;;;;6.47;1.33;;;23.90;99.90;;;;;;4975262;28;20474;-81
2022/10/06 10:17:48;;;;;;;7.07;1.67;;;23.30;99.90;;;;;;4966649;28;20035;-81
2022/10/06 10:20:26;;;;;;;7.53;1.23;;;22.90;99.90;;;;;;4972500;28;20097;-82
2022/10/06 10:22:55;;;;;;;4.90;1.20;;;22.00;99.90;;;;;;4974260;28;20078;-83
2022/10/06 10:26:03;;;;;;;4.55;1.00;;;21.80;99.90;;;;;;4972667;28;20469;-81
2022/10/06 10:28:56;;;;;;;7.68;1.40;;;22.30;99.90;;;;;;4987813;28;20063;-80
2022/10/06 10:31:29;;;;;;;6.07;1.47;;;23.20;99.90;;;;;;4972267;28;20453;-81
2022/10/06 10:34:14;;;;;;;5.65;1.08;;;23.80;99.90;;;;;;4973151;28;20274;-81
2022/10/06 10:37:09;;;;;;;5.40;1.25;;;24.40;99.90;;;;;;4972716;28;20118;-82
2022/10/06 10:39:48;;;;;;;5.53;1.55;;;25.00;99.90;;;;;;4975156;28;20039;-81
2022/10/06 10:42:37;;;;;;;4.10;1.05;;;25.00;99.10;;;;;;4997360;28;20007;-81
2022/10/06 10:45:28;;;;;;;5.80;1.20;;;25.40;98.80;;;;;;4996266;28;20041;-82
2022/10/06 10:48:00;;;;;;;4.72;1.10;;;24.80;98.80;;;;;;4999056;28;20459;-81
2022/10/06 10:50:42;;;;;;;5.25;1.40;;;24.90;99.20;;;;;;4973917;28;20054;-80
2022/10/06 10:53:30;;;;;;;6.20;1.20;;;24.90;98.60;;;;;;4970087;28;20041;-81
2022/10/06 10:56:06;;;;;;;5.20;1.10;;;25.20;99.00;;;;;;4972684;28;20041;-81
2022/10/06 10:58:41;;;;;;;5.25;1.15;;;25.60;97.00;;;;;;4971578;28;20023;-81
2022/10/06 11:01:20;;;;;;;4.23;1.10;;;25.30;97.90;;;;;;4968866;28;20035;-81
2022/10/06 11:03:58;;;;;;;5.10;0.98;;;24.60;97.60;;;;;;4987420;28;20353;-81
2022/10/06 11:06:37;;;;;;;4.32;0.80;;;23.50;98.50;;;;;;4955179;28;20039;-81
2022/10/06 11:09:18;;;;;;;4.10;0.90;;;23.00;99.30;;;;;;4962060;28;20030;-81
2022/10/06 11:11:53;;;;;;;6.22;1.40;;;22.40;99.90;;;;;;4968745;28;20023;-81
2022/10/06 11:14:51;;;;;;;3.80;1.17;;;22.20;99.90;;;;;;4968308;28;20058;-81
2022/10/06 11:17:43;;;;;;;3.60;0.80;;;23.60;99.90;;;;;;4961986;28;20134;-81
2022/10/06 11:20:28;;;;;;;3.87;1.03;;;25.10;98.40;;;;;;4957628;28;20075;-82
2022/10/06 11:23:21;;;;;;;5.07;1.17;;;25.80;97.90;;;;;;4982985;28;20023;-82
2022/10/06 11:26:13;;;;;;;4.65;1.00;;;26.70;95.90;;;;;;4956926;28;20070;-82
2022/10/06 11:29:26;;;;;;;4.63;1.30;;;26.30;96.10;;;;;;4963304;28;20031;-83
2022/10/06 11:31:56;;;;;;;4.55;0.90;;;25.10;95.20;;;;;;4963965;28;20495;-83
2022/10/06 11:34:31;;;;;;;3.25;1.00;;;23.90;96.60;;;;;;4985093;28;20113;-82
2022/10/06 11:37:34;;;;;;;5.38;0.93;;;24.10;96.10;;;;;;4969248;28;20089;-82
2022/10/06 11:40:48;;;;;;;4.22;0.85;;;24.20;96.40;;;;;;4966797;28;20026;-83
2022/10/06 11:43:54;;;;;;;3.90;0.93;;;24.90;96.10;;;;;;4968908;28;20105;-80
2022/10/06 11:46:44;;;;;;;4.95;1.08;;;25.30;95.40;;;;;;4966384;28;20067;-82
2022/10/06 11:49:33;;;;;;;5.05;1.20;;;25.80;95.00;;;;;;4963942;28;20034;-81
2022/10/06 11:52:28;;;;;;;5.05;0.90;;;26.40;95.00;;;;;;4980398;28;20504;-81
2022/10/06 11:55:16;;;;;;;4.13;1.17;;;26.80;93.70;;;;;;4982987;28;20097;-79
2022/10/06 11:58:11;;;;;;;4.85;1.30;;;27.20;94.10;;;;;;4969375;28;20026;-81
2022/10/06 12:00:44;;;;;;;4.57;1.00;;;27.60;93.80;;;;;;4966054;28;20042;-82
2022/10/06 12:03:50;;;;;;;5.55;1.15;;;27.80;93.00;;;;;;4969003;28;20062;-82
2022/10/06 12:06:45;;;;;;;3.92;1.00;;;27.70;92.20;;;;;;4967725;28;20049;-80
2022/10/06 12:09:29;;;;;;;3.83;0.90;;;27.40;91.60;;;;;;4978976;28;20039;-79
2022/10/06 12:12:41;;;;;;;3.10;0.60;;;27.20;90.80;;;;;;4968764;28;20491;-80
2022/10/06 12:15:08;;;;;;;3.90;1.00;;;27.20;91.80;;;;;;4968020;28;20030;-81
2022/10/06 12:18:31;;;;;;;2.67;0.80;;;27.70;91.60;;;;;;4968339;28;20030;-81
2022/10/06 12:21:27;;;;;;;3.83;0.90;;;28.30;91.90;;;;;;4950221;28;20129;-81
2022/10/06 12:23:57;;;;;;;4.22;1.23;;;28.40;91.40;;;;;;4981141;28;20123;-82
2022/10/06 12:26:47;;;;;;;3.92;0.90;;;28.20;91.70;;;;;;4970314;28;20134;-83
2022/10/06 12:29:35;;;;;;;3.70;0.90;;;28.70;92.10;;;;;;4979543;28;20038;-81
2022/10/06 12:32:33;;;;;;;4.00;0.90;;;29.00;91.80;;;;;;4970971;28;20054;-81
2022/10/06 12:35:15;;;;;;;4.72;0.90;;;28.90;91.60;;;;;;4994799;28;20062;-81
2022/10/06 12:37:51;;;;;;;2.20;0.82;;;29.00;91.90;;;;;;4983929;28;20062;-81
2022/10/06 12:40:59;;;;;;;4.85;1.00;;;28.90;91.70;;;;;;4975054;28;20031;-81
2022/10/06 12:43:59;;;;;;;5.63;1.08;;;28.80;91.30;;;;;;4892736;29;20036;-81
2022/10/06 12:46:48;;;;;;;3.75;0.80;;;28.60;91.10;;;;;;4890279;29;20040;-81
2022/10/06 12:49:35;;;;;;;3.25;0.90;;;28.60;91.70;;;;;;4952109;28;20068;-82
2022/10/06 12:52:37;;;;;;;4.45;0.90;;;28.10;91.50;;;;;;4978042;28;20133;-80
2022/10/06 12:55:37;;;;;;;3.22;0.75;;;27.40;91.50;;;;;;4966453;28;20128;-81
2022/10/06 12:58:06;;;;;;;4.85;1.10;;;26.90;92.10;;;;;;4967412;28;20066;-81
2022/10/06 13:00:38;;;;;;;2.70;0.75;;;26.50;92.60;;;;;;4963508;28;20091;-82
2022/10/06 13:03:14;;;;;;;3.40;1.00;;;26.90;92.60;;;;;;4964518;28;20047;-81
2022/10/06 13:05:49;;;;;;;3.50;0.77;;;26.50;92.10;;;;;;4968268;28;20042;-81
2022/10/06 13:08:28;;;;;;;4.00;0.90;;;26.50;91.50;;;;;;4971207;28;20046;-81
2022/10/06 13:11:39;;;;;;;3.47;0.70;;;25.40;92.10;;;;;;4964191;28;20151;-81
2022/10/06 13:14:15;;;;;;;3.28;0.73;;;23.90;93.40;;;;;;4969983;28;20056;-82
2022/10/06 13:16:49;;;;;;;3.30;0.80;;;23.50;94.80;;;;;;4973940;28;20034;-83
2022/10/06 13:19:27;;;;;;;2.95;0.70;;;23.10;95.00;;;;;;4959411;28;20038;-81
2022/10/06 13:21:54;;;;;;;5.75;0.80;;;22.70;95.50;;;;;;4967012;28;20027;-80
2022/10/06 13:24:25;;;;;;;3.45;0.80;;;22.80;96.10;;;;;;4956111;28;20034;-80
2022/10/06 13:26:55;;;;;;;6.82;1.17;;;23.30;95.70;;;;;;4966212;28;20034;-82
2022/10/06 13:29:26;;;;;;;4.63;0.88;;;24.10;95.30;;;;;;4966300;28;20059;-81
2022/10/06 13:31:57;;;;;;;2.60;0.70;;;24.80;93.80;;;;;;4950851;28;20066;-81
2022/10/06 13:34:31;;;;;;;4.30;1.00;;;25.40;93.40;;;;;;4969801;28;20130;-81
2022/10/06 13:37:07;;;;;;;2.88;0.82;;;26.00;92.80;;;;;;4970540;28;20037;-82
2022/10/06 13:39:37;;;;;;;3.58;1.00;;;26.60;93.00;;;;;;4936098;28;20059;-82
2022/10/06 13:42:20;;;;;;;3.00;0.70;;;27.30;92.70;;;;;;4952987;28;20037;-81
2022/10/06 13:45:13;;;;;;;3.88;0.95;;;27.80;92.90;;;;;;4972726;28;20589;-81
2022/10/06 13:47:41;;;;;;;3.92;1.23;;;27.80;91.40;;;;;;4971908;28;20073;-81
2022/10/06 13:50:20;;;;;;;3.60;0.80;;;27.40;90.30;;;;;;4965858;28;20045;-81
2022/10/06 13:52:49;;;;;;;4.57;0.65;;;27.00;90.70;;;;;;4968604;28;20033;-82
2022/10/06 13:55:24;;;;;;;3.25;0.70;;;27.20;91.50;;;;;;4952626;28;20047;-81
2022/10/06 13:57:59;;;;;;;3.00;0.80;;;27.30;91.20;;;;;;4968737;28;20038;-82